createdAt,value
2019-03-18T00:00:10.117Z,51.51
2019-03-18T00:02:40.576Z,51.79
2019-03-18T00:05:11.154Z,52.82
2019-03-18T00:07:41.601Z,52.40
2019-03-18T00:10:12.293Z,52.11
2019-03-18T00:12:42.803Z,52.25
2019-03-18T00:15:13.425Z,52.04
2019-03-18T00:17:43.910Z,51.97
2019-03-18T00:20:14.612Z,51.77
2019-03-18T00:22:45.076Z,52.04
2019-03-18T00:25:15.687Z,52.02
2019-03-18T00:27:46.342Z,52.11
2019-03-18T00:30:17.868Z,52.20
2019-03-18T00:32:48.320Z,52.18
2019-03-18T00:35:18.939Z,52.09
2019-03-18T00:37:49.384Z,52.07
2019-03-18T00:40:20.110Z,52.28
2019-03-18T00:42:50.574Z,54.51
2019-03-18T00:45:21.120Z,55.80
2019-03-18T00:47:51.671Z,54.66
2019-03-18T00:50:22.096Z,54.49
2019-03-18T00:52:52.582Z,53.88
2019-03-18T00:55:23.050Z,53.59
2019-03-18T00:57:53.541Z,53.62
2019-03-18T01:00:24.035Z,53.54
2019-03-18T01:02:54.521Z,53.48
2019-03-18T01:05:24.971Z,53.56
2019-03-18T01:07:55.464Z,53.92
2019-03-18T01:10:25.919Z,53.81
2019-03-18T01:12:56.409Z,53.59
2019-03-18T01:15:28.620Z,53.74
2019-03-18T01:17:59.051Z,53.84
2019-03-18T01:20:29.540Z,53.66
2019-03-18T01:23:00.024Z,53.70
2019-03-18T01:25:30.516Z,53.67
2019-03-18T01:28:00.991Z,53.68
2019-03-18T01:30:31.490Z,53.85
2019-03-18T01:33:01.946Z,54.04
2019-03-18T01:35:32.449Z,54.38
2019-03-18T01:38:02.901Z,54.34
2019-03-18T01:40:33.667Z,54.28
2019-03-18T01:43:04.154Z,54.53
2019-03-18T01:45:40.550Z,54.61
2019-03-18T01:48:06.913Z,54.58
2019-03-18T01:50:37.419Z,54.44
2019-03-18T01:53:07.875Z,54.52
2019-03-18T01:55:38.327Z,54.46
2019-03-18T01:58:08.826Z,54.79
2019-03-18T02:00:39.511Z,54.35
2019-03-18T02:03:09.962Z,54.55
2019-03-18T02:05:40.449Z,54.90
2019-03-18T02:08:10.932Z,54.80
2019-03-18T02:10:41.481Z,55.93
2019-03-18T02:13:11.935Z,55.11
2019-03-18T02:15:52.870Z,55.90
2019-03-18T02:18:14.573Z,56.76
2019-03-18T02:20:45.164Z,56.75
2019-03-18T02:23:15.633Z,56.18
2019-03-18T02:25:46.131Z,55.94
2019-03-18T02:28:16.587Z,57.21
2019-03-18T02:30:47.049Z,56.46
2019-03-18T02:33:17.560Z,56.18
2019-03-18T02:35:48.090Z,55.89
2019-03-18T02:38:18.546Z,55.77
2019-03-18T02:40:49.049Z,55.75
2019-03-18T02:43:19.540Z,55.58
2019-03-18T02:45:50.024Z,55.48
2019-03-18T02:48:20.482Z,56.55
2019-03-18T02:50:50.979Z,56.77
2019-03-18T02:53:21.430Z,56.46
2019-03-18T02:55:51.901Z,56.23
2019-03-18T02:58:22.409Z,56.61
2019-03-18T03:00:52.919Z,56.66
2019-03-18T03:03:23.432Z,56.29
2019-03-18T03:05:53.964Z,55.82
2019-03-18T03:08:24.430Z,55.71
2019-03-18T03:10:54.897Z,55.57
2019-03-18T03:13:25.423Z,55.17
2019-03-18T03:15:55.891Z,55.02
2019-03-18T03:18:26.349Z,54.89
2019-03-18T03:20:56.844Z,54.82
2019-03-18T03:23:27.300Z,54.85
2019-03-18T03:25:57.801Z,54.89
2019-03-18T03:28:28.303Z,54.94
2019-03-18T03:30:58.763Z,55.03
2019-03-18T03:33:29.254Z,55.20
2019-03-18T03:35:59.712Z,55.63
2019-03-18T03:38:30.221Z,55.82
2019-03-18T03:41:00.687Z,56.02
2019-03-18T03:43:31.346Z,55.92
2019-03-18T03:46:01.859Z,55.84
2019-03-18T03:48:32.321Z,56.09
2019-03-18T03:51:02.813Z,56.55
2019-03-18T03:53:33.306Z,57.25
2019-03-18T03:56:03.758Z,57.05
2019-03-18T03:58:34.354Z,56.97
2019-03-18T04:01:04.820Z,57.78
2019-03-18T04:03:38.802Z,57.44
2019-03-18T04:06:07.634Z,58.90
2019-03-18T04:08:38.310Z,59.06
2019-03-18T04:11:09.159Z,58.62
2019-03-18T04:13:39.620Z,57.94
2019-03-18T04:16:10.117Z,58.74
2019-03-18T04:18:40.572Z,59.53
2019-03-18T04:21:11.089Z,58.91
2019-03-18T04:23:41.580Z,58.24
2019-03-18T04:26:12.082Z,57.70
2019-03-18T04:28:42.540Z,57.71
2019-03-18T04:31:12.995Z,57.39
2019-03-18T04:33:43.493Z,57.30
2019-03-18T04:36:14.002Z,57.15
2019-03-18T04:38:44.493Z,57.02
2019-03-18T04:41:14.949Z,56.95
2019-03-18T04:43:45.419Z,56.89
2019-03-18T04:46:15.930Z,56.93
2019-03-18T04:48:46.402Z,56.96
2019-03-18T04:51:16.861Z,57.00
2019-03-18T04:53:47.357Z,56.77
2019-03-18T04:56:17.856Z,56.79
2019-03-18T04:58:48.309Z,56.50
2019-03-18T05:01:18.805Z,56.47
2019-03-18T05:03:49.317Z,56.42
2019-03-18T05:06:19.768Z,56.41
2019-03-18T05:08:50.267Z,56.15
2019-03-18T05:11:20.726Z,56.13
2019-03-18T05:13:51.300Z,55.87
2019-03-18T05:16:21.889Z,55.92
2019-03-18T05:18:52.359Z,54.93
2019-03-18T05:21:22.817Z,55.00
2019-03-18T05:23:53.418Z,54.81
2019-03-18T05:26:23.909Z,54.17
2019-03-18T05:28:54.371Z,53.60
2019-03-18T05:31:24.842Z,52.11
2019-03-18T05:33:55.312Z,51.83
2019-03-18T05:36:25.807Z,51.66
2019-03-18T05:38:56.326Z,51.02
2019-03-18T05:41:26.794Z,51.04
2019-03-18T05:43:57.312Z,50.78
2019-03-18T05:46:27.779Z,50.77
2019-03-18T05:48:58.276Z,50.23
2019-03-18T05:51:28.741Z,50.05
2019-03-18T05:53:59.257Z,49.64
2019-03-18T05:56:29.730Z,49.10
2019-03-18T05:59:00.247Z,48.68
2019-03-18T06:01:30.765Z,48.62
2019-03-18T06:04:01.275Z,48.29
2019-03-18T06:06:31.774Z,48.25
2019-03-18T06:09:02.306Z,48.08
2019-03-18T06:11:32.783Z,47.83
2019-03-18T06:14:03.438Z,47.58
2019-03-18T06:16:33.915Z,47.75
2019-03-18T06:19:04.442Z,47.56
2019-03-18T06:21:35.006Z,47.48
2019-03-18T06:24:06.561Z,47.23
2019-03-18T06:26:37.107Z,47.05
2019-03-18T06:29:08.247Z,46.94
2019-03-18T06:31:40.239Z,46.93
2019-03-18T06:34:10.733Z,46.64
2019-03-18T06:36:41.302Z,46.36
2019-03-18T06:39:11.843Z,45.27
2019-03-18T06:41:42.327Z,45.66
2019-03-18T06:44:13.344Z,45.21
2019-03-18T06:46:43.818Z,45.04
2019-03-18T06:49:14.418Z,44.42
2019-03-18T06:51:44.941Z,44.31
2019-03-18T06:54:15.520Z,43.95
2019-03-18T06:56:46.151Z,43.41
2019-03-18T06:59:16.670Z,43.68
2019-03-18T07:01:47.191Z,42.77
2019-03-18T07:04:17.741Z,43.05
2019-03-18T07:06:48.257Z,42.71
2019-03-18T07:09:18.744Z,42.51
2019-03-18T07:11:49.361Z,42.52
2019-03-18T07:14:20.908Z,42.70
2019-03-18T07:16:51.399Z,42.78
2019-03-18T07:19:21.888Z,42.11
2019-03-18T07:21:52.394Z,42.25
2019-03-18T07:24:22.905Z,42.61
2019-03-18T07:26:53.458Z,42.21
2019-03-18T07:29:23.924Z,42.25
2019-03-18T07:31:54.452Z,42.13
2019-03-18T07:34:24.975Z,41.89
2019-03-18T07:36:55.509Z,41.79
2019-03-18T07:39:26.040Z,42.01
2019-03-18T07:41:56.598Z,42.02
2019-03-18T07:44:27.100Z,42.05
2019-03-18T07:46:58.713Z,42.35
2019-03-18T07:49:29.618Z,42.54
2019-03-18T07:52:00.095Z,41.96
2019-03-18T07:54:32.914Z,42.72
2019-03-18T07:57:03.007Z,42.62
2019-03-18T07:59:33.547Z,42.46
2019-03-18T08:02:04.157Z,42.11
2019-03-18T08:04:37.564Z,42.66
2019-03-18T08:07:06.839Z,42.17
2019-03-18T08:09:37.379Z,41.64
2019-03-18T08:12:07.870Z,41.48
2019-03-18T08:14:38.381Z,41.59
2019-03-18T08:17:08.860Z,41.50
2019-03-18T08:19:39.377Z,40.82
2019-03-18T08:22:09.988Z,40.79
2019-03-18T08:24:40.557Z,40.80
2019-03-18T08:27:11.023Z,40.74
2019-03-18T08:29:41.479Z,40.69
2019-03-18T08:32:12.125Z,40.41
2019-03-18T08:34:42.581Z,40.05
2019-03-18T08:37:13.087Z,39.79
2019-03-18T08:39:43.600Z,39.78
2019-03-18T08:42:14.074Z,40.40
2019-03-18T08:44:44.610Z,40.17
2019-03-18T08:47:15.144Z,39.99
2019-03-18T08:49:45.647Z,39.16
2019-03-18T08:52:16.152Z,38.89
2019-03-18T08:54:46.701Z,38.79
2019-03-18T08:57:17.181Z,38.67
2019-03-18T08:59:47.655Z,38.62
2019-03-18T09:02:18.285Z,38.69
2019-03-18T09:04:48.755Z,38.82
2019-03-18T09:07:19.261Z,38.21
2019-03-18T09:09:49.721Z,37.99
2019-03-18T09:12:20.255Z,37.83
2019-03-18T09:14:50.716Z,37.28
2019-03-18T09:17:21.276Z,37.78
2019-03-18T09:19:51.765Z,37.80
2019-03-18T09:22:25.046Z,37.88
2019-03-18T09:24:55.648Z,37.16
2019-03-18T09:27:26.941Z,37.34
2019-03-18T09:29:57.449Z,37.38
2019-03-18T09:32:28.023Z,37.46
2019-03-18T09:34:58.494Z,37.22
2019-03-18T09:37:28.959Z,37.26
2019-03-18T09:39:59.479Z,36.77
2019-03-18T09:42:29.966Z,35.93
2019-03-18T09:45:00.505Z,35.77
2019-03-18T09:47:31.099Z,35.17
2019-03-18T09:50:01.847Z,35.27
2019-03-18T09:52:32.364Z,35.25
2019-03-18T09:55:02.950Z,35.23
2019-03-18T09:57:33.444Z,34.80
2019-03-18T10:00:04.004Z,34.71
2019-03-18T10:02:34.510Z,34.75
2019-03-18T10:05:05.346Z,34.46
2019-03-18T10:07:35.863Z,34.50
2019-03-18T10:10:07.442Z,34.54
2019-03-18T10:12:37.957Z,34.33
2019-03-18T10:15:10.137Z,34.89
2019-03-18T10:17:40.631Z,35.18
2019-03-18T10:20:11.268Z,35.35
2019-03-18T10:22:41.802Z,35.79
2019-03-18T10:25:12.435Z,35.63
2019-03-18T10:27:42.962Z,35.39
2019-03-18T10:30:13.669Z,35.18
2019-03-18T10:32:44.312Z,35.22
2019-03-18T10:35:15.078Z,35.54
2019-03-18T10:37:45.671Z,35.58
2019-03-18T10:40:19.257Z,35.66
2019-03-18T10:42:50.052Z,36.19
2019-03-18T10:45:20.701Z,35.90
2019-03-18T10:47:51.193Z,35.68
2019-03-18T10:50:21.995Z,35.98
2019-03-18T10:52:52.543Z,36.98
2019-03-18T10:55:22.993Z,36.20
2019-03-18T10:57:53.586Z,36.32
2019-03-18T11:00:24.250Z,36.56
2019-03-18T11:02:54.764Z,35.85
2019-03-18T11:05:25.338Z,36.02
2019-03-18T11:07:55.805Z,35.79
2019-03-18T11:10:26.267Z,35.71
2019-03-18T11:12:57.135Z,35.53
2019-03-18T11:15:27.615Z,36.04
2019-03-18T11:17:58.092Z,35.59
2019-03-18T11:20:28.608Z,35.58
2019-03-18T11:22:59.133Z,35.42
2019-03-18T11:25:29.642Z,35.39
2019-03-18T11:28:00.240Z,35.48
2019-03-18T11:30:30.954Z,35.52
2019-03-18T11:33:01.542Z,35.58
2019-03-18T11:35:32.055Z,35.77
2019-03-18T11:38:05.091Z,35.72
2019-03-18T11:40:35.868Z,36.01
2019-03-18T11:43:06.334Z,36.04
2019-03-18T11:45:36.891Z,35.81
2019-03-18T11:48:07.482Z,35.83
2019-03-18T11:50:38.093Z,35.40
2019-03-18T11:53:14.279Z,35.43
2019-03-18T11:55:40.765Z,35.53
2019-03-18T11:58:11.292Z,35.32
2019-03-18T12:00:41.841Z,34.83
2019-03-18T12:03:12.758Z,34.92
2019-03-18T12:05:43.232Z,35.01
2019-03-18T12:08:13.824Z,34.93
2019-03-18T12:10:46.298Z,34.88
2019-03-18T12:13:16.713Z,34.80
2019-03-18T12:15:50.356Z,34.69
2019-03-18T12:18:21.028Z,34.56
2019-03-18T12:20:51.535Z,34.17
2019-03-18T12:23:22.300Z,34.27
2019-03-18T12:25:52.888Z,34.14
2019-03-18T12:28:23.444Z,34.17
2019-03-18T12:30:54.020Z,34.12
2019-03-18T12:33:24.587Z,34.06
2019-03-18T12:35:55.635Z,34.31
2019-03-18T12:38:26.200Z,33.96
2019-03-18T12:40:56.694Z,34.19
2019-03-18T12:43:27.190Z,34.15
2019-03-18T12:45:58.508Z,34.33
2019-03-18T12:48:29.071Z,34.12
2019-03-18T12:50:59.616Z,34.29
2019-03-18T12:53:30.170Z,34.46
2019-03-18T12:56:01.711Z,34.73
2019-03-18T12:58:32.282Z,34.86
2019-03-18T13:01:12.520Z,35.14
2019-03-18T13:03:36.129Z,35.11
2019-03-18T13:06:06.660Z,35.14
2019-03-18T13:08:37.180Z,35.25
2019-03-18T13:11:07.666Z,35.15
2019-03-18T13:13:38.185Z,35.17
2019-03-18T13:16:08.679Z,34.98
2019-03-18T13:18:40.993Z,35.00
2019-03-18T13:21:11.458Z,34.65
2019-03-18T13:23:42.024Z,34.56
2019-03-18T13:26:12.543Z,33.99
2019-03-18T13:28:43.064Z,34.26
2019-03-18T13:31:13.568Z,34.06
2019-03-18T13:33:44.084Z,33.66
2019-03-18T13:36:16.330Z,33.59
2019-03-18T13:38:46.796Z,33.29
2019-03-18T13:41:17.371Z,33.08
2019-03-18T13:43:47.825Z,32.89
2019-03-18T13:46:18.708Z,32.61
2019-03-18T13:48:49.243Z,32.03
2019-03-18T13:51:21.225Z,32.11
2019-03-18T13:53:51.978Z,32.12
2019-03-18T13:56:22.498Z,31.56
2019-03-18T13:58:52.961Z,31.62
2019-03-18T14:01:23.517Z,31.30
2019-03-18T14:03:53.999Z,31.30
2019-03-18T14:06:24.626Z,31.24
2019-03-18T14:08:55.160Z,31.24
2019-03-18T14:11:25.752Z,31.19
2019-03-18T14:13:56.411Z,31.31
2019-03-18T14:16:26.948Z,31.12
2019-03-18T14:18:57.453Z,30.89
2019-03-18T14:21:33.259Z,30.93
2019-03-18T14:24:00.115Z,30.82
2019-03-18T14:26:30.672Z,30.77
2019-03-18T14:29:01.267Z,30.68
2019-03-18T14:31:32.947Z,30.79
2019-03-18T14:34:03.433Z,30.30
2019-03-18T14:36:33.949Z,28.91
2019-03-18T14:39:05.377Z,28.12
2019-03-18T14:41:35.903Z,27.85
2019-03-18T14:44:06.438Z,27.03
2019-03-18T14:46:37.115Z,27.12
2019-03-18T14:49:07.602Z,27.17
2019-03-18T14:51:45.550Z,26.84
2019-03-18T14:54:10.458Z,26.58
2019-03-18T14:56:40.949Z,27.18
2019-03-18T14:59:11.609Z,27.15
2019-03-18T15:01:42.162Z,27.04
2019-03-18T15:04:12.759Z,27.16
2019-03-18T15:06:43.238Z,27.11
2019-03-18T15:09:13.702Z,27.24
2019-03-18T15:11:44.220Z,27.23
2019-03-18T15:14:14.744Z,27.03
2019-03-18T15:16:45.250Z,26.96
2019-03-18T15:19:15.715Z,27.10
2019-03-18T15:21:57.640Z,27.43
2019-03-18T15:24:18.544Z,27.67
2019-03-18T15:26:49.098Z,27.21
2019-03-18T15:29:19.570Z,27.19
2019-03-18T15:31:52.255Z,27.59
2019-03-18T15:34:22.326Z,28.11
2019-03-18T15:36:52.864Z,28.71
2019-03-18T15:39:23.315Z,29.40
2019-03-18T15:41:53.926Z,29.70
2019-03-18T15:44:24.398Z,29.81
2019-03-18T15:46:54.904Z,30.09
2019-03-18T15:49:25.412Z,30.26
2019-03-18T15:51:55.924Z,30.29
2019-03-18T15:54:26.400Z,30.82
2019-03-18T15:56:56.893Z,31.15
2019-03-18T15:59:27.398Z,31.37
2019-03-18T16:01:57.842Z,31.81
2019-03-18T16:04:28.332Z,32.24
2019-03-18T16:06:58.792Z,32.70
2019-03-18T16:09:29.525Z,32.85
2019-03-18T16:11:59.989Z,33.19
2019-03-18T16:14:30.504Z,33.35
2019-03-18T16:17:02.348Z,33.72
2019-03-18T16:19:32.999Z,34.15
2019-03-18T16:22:03.488Z,34.35
2019-03-18T16:24:33.983Z,34.85
2019-03-18T16:27:04.479Z,35.07
2019-03-18T16:29:34.987Z,35.72
2019-03-18T16:32:11.228Z,35.99
2019-03-18T16:34:37.783Z,36.10
2019-03-18T16:37:08.231Z,36.69
2019-03-18T16:39:38.689Z,36.93
2019-03-18T16:42:09.186Z,37.23
2019-03-18T16:44:39.644Z,37.47
2019-03-18T16:47:10.153Z,37.84
2019-03-18T16:49:40.612Z,38.41
2019-03-18T16:52:11.104Z,38.23
2019-03-18T16:54:41.581Z,38.89
2019-03-18T16:57:12.107Z,39.02
2019-03-18T16:59:42.568Z,39.08
2019-03-18T17:02:13.078Z,39.32
2019-03-18T17:04:43.615Z,39.21
2019-03-18T17:07:14.083Z,39.50
2019-03-18T17:09:44.562Z,39.27
2019-03-18T17:12:15.017Z,40.30
2019-03-18T17:14:45.512Z,40.76
2019-03-18T17:17:15.969Z,40.44
2019-03-18T17:19:46.467Z,40.84
2019-03-18T17:22:16.979Z,40.38
2019-03-18T17:24:49.127Z,40.97
2019-03-18T17:27:19.822Z,41.32
2019-03-18T17:29:50.334Z,41.87
2019-03-18T17:32:20.775Z,41.89
2019-03-18T17:34:51.273Z,42.25
2019-03-18T17:37:21.777Z,42.20
2019-03-18T17:39:52.223Z,41.96
2019-03-18T17:42:22.715Z,42.44
2019-03-18T17:44:53.215Z,42.45
2019-03-18T17:47:23.664Z,43.27
2019-03-18T17:49:54.164Z,43.40
2019-03-18T17:52:24.653Z,43.72
2019-03-18T17:54:55.178Z,43.79
2019-03-18T17:57:25.708Z,44.31
2019-03-18T17:59:56.200Z,44.29
2019-03-18T18:02:26.708Z,44.70
2019-03-18T18:05:02.779Z,44.54
2019-03-18T18:07:29.416Z,44.73
2019-03-18T18:09:59.875Z,44.53
2019-03-18T18:12:30.377Z,44.38
2019-03-18T18:15:00.913Z,44.71
2019-03-18T18:17:31.475Z,44.71
2019-03-18T18:20:01.938Z,44.91
2019-03-18T18:22:32.439Z,44.88
2019-03-18T18:25:02.905Z,45.21
2019-03-18T18:27:33.355Z,45.88
2019-03-18T18:30:04.085Z,45.85
2019-03-18T18:32:34.531Z,46.03
2019-03-18T18:35:05.485Z,46.25
2019-03-18T18:37:36.004Z,46.27
2019-03-18T18:40:06.839Z,46.38
2019-03-18T18:42:37.334Z,46.67
2019-03-18T18:45:08.039Z,46.65
2019-03-18T18:47:38.545Z,46.74
2019-03-18T18:50:09.801Z,46.74
2019-03-18T18:52:40.261Z,46.84
2019-03-18T18:55:10.882Z,46.86
2019-03-18T18:57:41.452Z,46.61
2019-03-18T19:00:14.148Z,47.35
2019-03-18T19:02:44.891Z,48.18
2019-03-18T19:05:15.493Z,47.80
2019-03-18T19:07:46.140Z,47.92
2019-03-18T19:10:16.801Z,48.17
2019-03-18T19:12:47.236Z,48.30
2019-03-18T19:15:19.498Z,48.96
2019-03-18T19:17:50.110Z,49.18
2019-03-18T19:20:20.768Z,48.91
2019-03-18T19:22:51.359Z,48.68
2019-03-18T19:25:21.850Z,49.09
2019-03-18T19:27:52.489Z,49.15
2019-03-18T19:30:22.947Z,49.11
2019-03-18T19:32:53.403Z,49.60
2019-03-18T19:35:23.905Z,49.33
2019-03-18T19:37:54.425Z,49.33
2019-03-18T19:40:24.911Z,49.29
2019-03-18T19:42:55.361Z,50.41
2019-03-18T19:45:25.984Z,49.96
2019-03-18T19:47:56.459Z,50.14
2019-03-18T19:50:26.918Z,51.59
2019-03-18T19:52:57.424Z,51.07
2019-03-18T19:55:27.925Z,50.80
2019-03-18T19:57:58.488Z,51.01
2019-03-18T20:00:29.078Z,50.93
2019-03-18T20:02:59.635Z,50.69
2019-03-18T20:05:30.136Z,50.71
2019-03-18T20:08:00.596Z,51.17
2019-03-18T20:10:31.199Z,51.88
2019-03-18T20:13:04.554Z,51.82
2019-03-18T20:15:33.835Z,52.16
2019-03-18T20:18:04.434Z,52.01
2019-03-18T20:20:34.880Z,52.80
2019-03-18T20:23:05.576Z,52.18
2019-03-18T20:25:36.183Z,52.92
2019-03-18T20:28:06.644Z,53.44
2019-03-18T20:30:37.085Z,53.22
2019-03-18T20:33:07.687Z,53.87
2019-03-18T20:35:38.246Z,53.96
2019-03-18T20:38:08.696Z,54.06
2019-03-18T20:40:39.244Z,54.15
2019-03-18T20:43:09.701Z,54.33
2019-03-18T20:45:40.207Z,54.06
2019-03-18T20:48:10.663Z,54.82
2019-03-18T20:50:41.177Z,54.38
2019-03-18T20:53:11.680Z,54.25
2019-03-18T20:55:42.159Z,54.35
2019-03-18T20:58:12.648Z,54.40
2019-03-18T21:00:43.145Z,54.90
2019-03-18T21:03:13.615Z,54.83
2019-03-18T21:05:44.114Z,55.00
2019-03-18T21:08:14.573Z,54.89
2019-03-18T21:10:45.077Z,54.80
2019-03-18T21:13:17.105Z,54.98
2019-03-18T21:15:47.715Z,54.94
2019-03-18T21:18:18.210Z,55.07
2019-03-18T21:20:48.660Z,55.12
2019-03-18T21:23:19.112Z,55.61
2019-03-18T21:25:49.619Z,55.54
2019-03-18T21:28:20.081Z,55.72
2019-03-18T21:30:50.611Z,56.02
2019-03-18T21:33:21.079Z,56.32
2019-03-18T21:35:54.670Z,56.26
2019-03-18T21:38:23.823Z,56.28
2019-03-18T21:40:54.340Z,56.36
2019-03-18T21:43:24.801Z,56.48
2019-03-18T21:45:55.258Z,56.89
2019-03-18T21:48:25.759Z,57.02
2019-03-18T21:50:56.268Z,58.00
2019-03-18T21:53:26.804Z,58.37
2019-03-18T21:55:57.270Z,58.50
2019-03-18T21:58:27.763Z,58.55
2019-03-18T22:00:58.230Z,58.45
2019-03-18T22:03:28.732Z,58.25
2019-03-18T22:06:00.907Z,58.01
2019-03-18T22:08:31.474Z,58.65
2019-03-18T22:11:01.962Z,59.38
2019-03-18T22:13:32.452Z,58.62
2019-03-18T22:16:02.899Z,58.55
2019-03-18T22:18:33.400Z,58.59
2019-03-18T22:21:03.865Z,59.67
2019-03-18T22:23:34.308Z,58.91
2019-03-18T22:26:04.871Z,59.03
2019-03-18T22:28:35.365Z,58.98
2019-03-18T22:31:05.961Z,59.21
2019-03-18T22:33:36.460Z,60.09
2019-03-18T22:36:06.921Z,62.40
2019-03-18T22:38:37.397Z,62.41
2019-03-18T22:41:07.902Z,62.65
2019-03-18T22:43:38.369Z,61.97
2019-03-18T22:46:08.881Z,62.49
2019-03-18T22:48:39.346Z,62.18
2019-03-18T22:51:09.806Z,62.08
2019-03-18T22:53:40.295Z,62.19
2019-03-18T22:56:10.745Z,62.04
2019-03-18T22:58:41.245Z,62.94
2019-03-18T23:01:14.626Z,63.63
2019-03-18T23:03:45.126Z,63.55
2019-03-18T23:06:15.718Z,62.77
2019-03-18T23:08:48.721Z,63.19
2019-03-18T23:11:18.538Z,62.97
2019-03-18T23:13:48.984Z,62.45
2019-03-18T23:16:19.482Z,62.40
2019-03-18T23:18:49.932Z,61.91
2019-03-18T23:21:20.426Z,62.26
2019-03-18T23:23:50.921Z,62.04
2019-03-18T23:26:21.377Z,62.02
2019-03-18T23:28:51.825Z,62.81
2019-03-18T23:31:22.317Z,62.53
2019-03-18T23:33:52.780Z,62.60
2019-03-18T23:36:23.315Z,62.51
2019-03-18T23:38:53.799Z,62.58
2019-03-18T23:41:24.296Z,62.58
2019-03-18T23:43:54.866Z,62.37
2019-03-18T23:46:25.374Z,62.73
2019-03-18T23:48:55.841Z,62.80
2019-03-18T23:51:26.353Z,62.82
2019-03-18T23:53:56.807Z,62.85
2019-03-18T23:56:27.300Z,63.18
2019-03-18T23:58:57.748Z,63.30
